createdAt,value
2023-01-09T00:02:05.702Z,3.50
2023-01-09T00:07:12.815Z,3.50
2023-01-09T00:12:20.048Z,3.50
2023-01-09T00:17:27.238Z,3.50
2023-01-09T00:22:34.400Z,3.50
2023-01-09T00:27:41.610Z,2.64
2023-01-09T00:32:48.820Z,2.64
2023-01-09T00:37:56.011Z,2.64
2023-01-09T00:43:03.226Z,2.64
2023-01-09T00:48:10.439Z,3.13
2023-01-09T00:53:17.630Z,3.13
2023-01-09T00:58:24.826Z,2.64
2023-01-09T01:03:32.055Z,3.13
2023-01-09T01:08:39.259Z,3.13
2023-01-09T01:13:46.418Z,3.13
2023-01-09T01:18:53.662Z,3.13
2023-01-09T01:24:00.779Z,3.13
2023-01-09T01:29:08.071Z,3.13
2023-01-09T01:34:15.268Z,3.13
2023-01-09T01:39:22.417Z,3.13
2023-01-09T01:44:29.666Z,3.13
2023-01-09T01:49:36.886Z,3.13
2023-01-09T01:54:44.774Z,3.13
2023-01-09T01:59:52.811Z,3.13
2023-01-09T02:05:00.033Z,2.27
2023-01-09T02:10:07.234Z,2.27
2023-01-09T02:15:14.467Z,2.27
2023-01-09T02:20:21.785Z,2.27
2023-01-09T02:25:28.958Z,2.27
2023-01-09T02:30:36.164Z,2.27
2023-01-09T02:35:43.374Z,2.75
2023-01-09T02:40:50.563Z,2.75
2023-01-09T02:45:57.870Z,2.75
2023-01-09T02:51:05.067Z,2.75
2023-01-09T02:56:12.255Z,2.75
2023-01-09T03:01:19.593Z,2.75
2023-01-09T03:06:27.730Z,2.75
2023-01-09T03:11:33.922Z,2.75
2023-01-09T03:16:41.147Z,2.75
2023-01-09T03:21:48.432Z,2.75
2023-01-09T03:26:55.792Z,2.75
2023-01-09T03:32:03.011Z,2.75
2023-01-09T03:37:10.235Z,2.75
2023-01-09T03:42:17.433Z,2.75
2023-01-09T03:47:24.576Z,2.75
2023-01-09T03:52:31.789Z,2.75
2023-01-09T03:57:38.966Z,2.75
2023-01-09T04:02:47.162Z,2.34
2023-01-09T04:07:53.426Z,2.79
2023-01-09T04:13:00.664Z,2.34
2023-01-09T04:18:07.877Z,2.79
2023-01-09T04:23:15.149Z,2.34
2023-01-09T04:28:22.254Z,2.34
2023-01-09T04:33:29.471Z,2.34
2023-01-09T04:38:36.710Z,1.88
2023-01-09T04:43:43.869Z,2.75
2023-01-09T04:48:51.096Z,2.75
2023-01-09T04:53:58.313Z,2.75
2023-01-09T04:59:05.536Z,2.75
2023-01-09T05:04:12.955Z,2.75
2023-01-09T05:09:20.124Z,2.75
2023-01-09T05:14:27.314Z,2.75
2023-01-09T05:19:34.601Z,2.75
2023-01-09T05:24:41.712Z,2.75
2023-01-09T05:29:48.879Z,2.75
2023-01-09T05:34:56.116Z,2.75
2023-01-09T05:40:03.336Z,1.88
2023-01-09T05:45:10.530Z,1.88
2023-01-09T05:50:17.749Z,1.88
2023-01-09T05:55:25.110Z,2.34
2023-01-09T06:00:32.231Z,2.34
2023-01-09T06:05:39.465Z,1.88
2023-01-09T06:10:46.799Z,1.88
2023-01-09T06:15:54.067Z,1.88
2023-01-09T06:21:01.186Z,1.88
2023-01-09T06:26:08.430Z,1.88
2023-01-09T06:31:15.699Z,1.88
2023-01-09T06:36:22.919Z,1.88
2023-01-09T06:41:30.391Z,1.88
2023-01-09T06:46:37.525Z,1.88
2023-01-09T06:51:44.739Z,1.88
2023-01-09T06:56:51.932Z,1.88
2023-01-09T07:01:59.270Z,1.88
2023-01-09T07:07:06.336Z,1.88
2023-01-09T07:12:13.527Z,1.88
2023-01-09T07:17:20.745Z,1.01
2023-01-09T07:22:27.940Z,0.54
2023-01-09T07:27:35.176Z,1.01
2023-01-09T07:32:42.357Z,0.54
2023-01-09T07:37:49.592Z,1.41
2023-01-09T07:42:56.776Z,0.92
2023-01-09T07:48:03.947Z,1.41
2023-01-09T07:53:11.150Z,0.92
2023-01-09T07:58:18.477Z,0.92
2023-01-09T08:03:25.603Z,0.92
2023-01-09T08:08:32.849Z,0.92
2023-01-09T08:13:40.107Z,1.41
2023-01-09T08:18:47.307Z,1.41
2023-01-09T08:23:54.517Z,1.41
2023-01-09T08:29:01.726Z,2.27
2023-01-09T08:34:08.910Z,2.27
2023-01-09T08:39:16.117Z,2.27
2023-01-09T08:44:23.342Z,2.27
2023-01-09T08:49:30.471Z,2.27
2023-01-09T08:54:37.694Z,1.78
2023-01-09T08:59:44.931Z,2.27
2023-01-09T09:04:52.096Z,1.78
2023-01-09T09:09:59.298Z,2.64
2023-01-09T09:15:06.590Z,3.13
2023-01-09T09:20:13.783Z,2.64
2023-01-09T09:25:20.956Z,2.13
2023-01-09T09:30:28.168Z,2.13
2023-01-09T09:35:35.407Z,2.13
2023-01-09T09:40:42.583Z,2.13
2023-01-09T09:45:49.804Z,1.60
2023-01-09T09:50:56.987Z,1.60
2023-01-09T09:56:04.143Z,1.60
2023-01-09T10:01:11.388Z,1.60
2023-01-09T10:06:18.528Z,2.13
2023-01-09T10:11:25.762Z,1.60
2023-01-09T10:16:33.024Z,1.60
2023-01-09T10:21:40.206Z,1.60
2023-01-09T10:26:47.425Z,1.60
2023-01-09T10:31:54.686Z,2.13
2023-01-09T10:37:02.056Z,2.13
2023-01-09T10:42:09.155Z,2.13
2023-01-09T10:47:16.374Z,2.98
2023-01-09T10:52:23.552Z,2.98
2023-01-09T10:57:30.733Z,2.98
2023-01-09T11:02:37.948Z,2.98
2023-01-09T11:07:45.089Z,2.98
2023-01-09T11:12:52.276Z,2.45
2023-01-09T11:17:59.492Z,2.45
2023-01-09T11:23:06.661Z,2.45
2023-01-09T11:28:13.808Z,2.45
2023-01-09T11:33:21.010Z,2.45
2023-01-09T11:38:28.170Z,2.45
2023-01-09T11:43:35.457Z,2.45
2023-01-09T11:48:42.632Z,2.45
2023-01-09T11:53:49.798Z,2.45
2023-01-09T11:58:57.053Z,2.45
2023-01-09T12:04:04.264Z,2.45
2023-01-09T12:09:11.396Z,2.45
2023-01-09T12:14:18.613Z,2.45
2023-01-09T12:19:25.890Z,2.45
2023-01-09T12:24:33.078Z,2.45
2023-01-09T12:29:40.320Z,2.45
2023-01-09T12:34:47.514Z,2.45
2023-01-09T12:39:54.688Z,2.45
2023-01-09T12:45:01.970Z,2.45
2023-01-09T12:50:09.170Z,2.45
2023-01-09T12:55:16.347Z,1.90
2023-01-09T13:00:23.518Z,2.45
2023-01-09T13:05:30.806Z,2.45
2023-01-09T13:10:38.000Z,2.45
2023-01-09T13:15:51.401Z,2.45
2023-01-09T13:20:58.582Z,1.90
2023-01-09T13:26:05.745Z,1.33
2023-01-09T13:31:13.022Z,1.33
2023-01-09T13:36:20.316Z,1.33
2023-01-09T13:41:27.576Z,1.33
2023-01-09T13:46:34.786Z,1.33
2023-01-09T13:51:42.084Z,1.33
2023-01-09T13:56:49.226Z,0.74
2023-01-09T14:01:56.491Z,0.74
2023-01-09T14:07:03.716Z,0.74
2023-01-09T14:12:10.897Z,1.33
2023-01-09T14:17:18.129Z,1.33
2023-01-09T14:22:25.359Z,1.33
2023-01-09T14:27:32.475Z,1.33
2023-01-09T14:32:39.700Z,1.33
2023-01-09T14:37:46.964Z,1.90
2023-01-09T14:42:54.199Z,1.90
2023-01-09T14:48:01.425Z,1.90
2023-01-09T14:53:08.724Z,1.90
2023-01-09T14:58:15.933Z,1.90
2023-01-09T15:03:23.107Z,2.45
2023-01-09T15:08:30.307Z,2.45
2023-01-09T15:13:37.593Z,2.45
2023-01-09T15:18:44.773Z,2.45
2023-01-09T15:23:52.070Z,2.45
2023-01-09T15:28:59.179Z,2.45
2023-01-09T15:34:06.393Z,2.45
2023-01-09T15:39:13.649Z,2.45
2023-01-09T15:44:20.776Z,2.98
2023-01-09T15:49:28.021Z,2.98
2023-01-09T15:54:35.307Z,3.30
2023-01-09T15:59:42.458Z,3.84
2023-01-09T16:04:49.635Z,3.84
2023-01-09T16:09:56.917Z,3.84
2023-01-09T16:15:04.048Z,3.84
2023-01-09T16:20:11.297Z,3.84
2023-01-09T16:25:18.530Z,3.84
2023-01-09T16:30:25.693Z,3.84
2023-01-09T16:35:32.876Z,3.84
2023-01-09T16:40:40.152Z,3.30
2023-01-09T16:45:47.439Z,3.30
2023-01-09T16:50:54.642Z,3.30
2023-01-09T16:56:01.848Z,3.30
2023-01-09T17:01:09.055Z,3.30
2023-01-09T17:06:16.224Z,3.30
2023-01-09T17:11:23.565Z,3.30
2023-01-09T17:16:30.826Z,3.30
2023-01-09T17:21:37.962Z,3.30
2023-01-09T17:26:45.216Z,3.30
2023-01-09T17:31:52.575Z,3.30
2023-01-09T17:36:59.819Z,3.30
2023-01-09T17:42:07.151Z,3.30
2023-01-09T17:47:14.286Z,3.30
2023-01-09T17:52:21.439Z,3.30
2023-01-09T17:57:28.636Z,3.30
2023-01-09T18:02:35.921Z,3.30
2023-01-09T18:07:43.309Z,3.30
2023-01-09T18:12:50.646Z,3.30
2023-01-09T18:17:57.828Z,3.30
2023-01-09T18:23:05.017Z,3.30
2023-01-09T18:28:12.246Z,3.30
2023-01-09T18:33:19.588Z,3.30
2023-01-09T18:38:29.459Z,3.30
2023-01-09T18:43:34.011Z,3.30
2023-01-09T18:48:41.457Z,3.30
2023-01-09T18:53:48.688Z,3.30
2023-01-09T18:58:55.956Z,3.30
2023-01-09T19:04:03.158Z,3.30
2023-01-09T19:09:10.311Z,3.30
2023-01-09T19:14:17.825Z,3.30
2023-01-09T19:19:25.137Z,3.30
2023-01-09T19:24:32.331Z,3.30
2023-01-09T19:29:39.561Z,3.30
2023-01-09T19:34:46.783Z,3.30
2023-01-09T19:39:54.008Z,3.30
2023-01-09T19:45:02.600Z,3.30
2023-01-09T19:50:10.283Z,3.30
2023-01-09T19:55:17.689Z,3.30
2023-01-09T20:00:25.226Z,3.30
2023-01-09T20:05:32.940Z,3.84
2023-01-09T20:10:40.299Z,3.84
2023-01-09T20:15:47.522Z,3.84
2023-01-09T20:20:55.040Z,3.84
2023-01-09T20:26:02.661Z,3.84
2023-01-09T20:31:10.466Z,3.84
2023-01-09T20:36:17.801Z,3.84
2023-01-09T20:41:25.042Z,3.84
2023-01-09T20:46:32.266Z,4.36
2023-01-09T20:51:39.429Z,3.84
2023-01-09T20:56:46.668Z,3.84
2023-01-09T21:01:53.941Z,3.84
2023-01-09T21:07:01.148Z,3.84
2023-01-09T21:12:08.475Z,3.84
2023-01-09T21:17:15.704Z,3.84
2023-01-09T21:22:22.939Z,3.84
2023-01-09T21:27:30.160Z,3.84
2023-01-09T21:32:37.461Z,3.84
2023-01-09T21:37:44.662Z,3.84
2023-01-09T21:42:51.880Z,4.69
2023-01-09T21:47:59.074Z,4.69
2023-01-09T21:53:06.221Z,4.69
2023-01-09T21:58:13.379Z,3.84
2023-01-09T22:03:20.624Z,3.84
2023-01-09T22:08:27.799Z,3.84
2023-01-09T22:13:34.999Z,4.69
2023-01-09T22:18:42.311Z,4.36
2023-01-09T22:23:49.511Z,3.84
2023-01-09T22:28:56.702Z,3.84
2023-01-09T22:34:03.903Z,3.84
2023-01-09T22:39:11.114Z,3.84
2023-01-09T22:44:18.316Z,3.84
2023-01-09T22:49:29.956Z,3.30
2023-01-09T22:54:32.740Z,3.30
2023-01-09T22:59:39.949Z,3.30
2023-01-09T23:04:47.170Z,3.30
2023-01-09T23:09:54.292Z,3.30
2023-01-09T23:15:01.544Z,3.30
2023-01-09T23:20:08.776Z,3.30
2023-01-09T23:25:15.954Z,2.45
2023-01-09T23:30:23.142Z,2.45
2023-01-09T23:35:30.410Z,2.45
2023-01-09T23:40:37.568Z,2.45
2023-01-09T23:45:44.880Z,2.45
2023-01-09T23:50:51.969Z,2.45
2023-01-09T23:55:59.135Z,1.90
